createdAt,value
2022-08-21T00:00:00.814Z,3.10
2022-08-21T00:07:24.045Z,3.03
2022-08-21T00:09:51.786Z,2.80
2022-08-21T00:12:18.209Z,3.25
2022-08-21T00:14:44.713Z,3.17
2022-08-21T00:17:13.074Z,3.25
2022-08-21T00:19:39.468Z,3.97
2022-08-21T00:22:05.901Z,3.90
2022-08-21T00:24:32.389Z,3.67
2022-08-21T00:29:26.350Z,3.70
2022-08-21T00:31:52.752Z,3.90
2022-08-21T00:34:19.171Z,4.03
2022-08-21T00:36:45.637Z,3.60
2022-08-21T00:39:12.046Z,3.80
2022-08-21T00:41:39.804Z,4.45
2022-08-21T00:44:08.947Z,4.20
2022-08-21T00:46:35.396Z,3.80
2022-08-21T00:49:01.796Z,3.55
2022-08-21T00:51:38.428Z,4.28
2022-08-21T00:54:05.663Z,4.20
2022-08-21T00:56:32.278Z,3.53
2022-08-21T00:59:01.117Z,3.63
2022-08-21T01:01:28.357Z,4.07
2022-08-21T01:03:54.875Z,4.60
2022-08-21T01:06:21.338Z,4.28
2022-08-21T01:08:47.952Z,4.30
2022-08-21T01:16:14.526Z,4.75
2022-08-21T01:18:40.949Z,4.72
2022-08-21T01:21:09.404Z,5.20
2022-08-21T01:23:40.500Z,5.35
2022-08-21T01:26:07.602Z,5.07
2022-08-21T01:28:38.199Z,4.72
2022-08-21T01:31:05.807Z,5.03
2022-08-21T01:33:32.278Z,4.93
2022-08-21T01:35:58.725Z,5.00
2022-08-21T01:38:26.067Z,5.03
2022-08-21T01:40:53.869Z,4.90
2022-08-21T01:43:32.411Z,5.25
2022-08-21T01:46:05.994Z,4.53
2022-08-21T01:48:32.563Z,4.43
2022-08-21T01:55:54.178Z,4.25
2022-08-21T01:58:20.741Z,4.55
2022-08-21T02:03:35.215Z,4.22
2022-08-21T02:06:03.259Z,4.93
2022-08-21T02:08:30.045Z,5.50
2022-08-21T02:10:56.460Z,5.78
2022-08-21T02:13:22.858Z,4.95
2022-08-21T02:15:49.409Z,5.60
2022-08-21T02:20:43.451Z,6.20
2022-08-21T02:23:11.045Z,5.53
2022-08-21T02:25:38.258Z,6.63
2022-08-21T02:28:05.877Z,5.88
2022-08-21T02:30:33.965Z,6.65
2022-08-21T02:33:00.434Z,6.13
2022-08-21T02:35:27.141Z,6.35
2022-08-21T02:37:55.141Z,6.40
2022-08-21T02:40:23.320Z,6.30
2022-08-21T02:42:50.118Z,6.05
2022-08-21T02:45:18.292Z,5.57
2022-08-21T02:47:48.655Z,6.00
2022-08-21T02:50:17.960Z,5.78
2022-08-21T02:52:44.905Z,5.35
2022-08-21T02:55:11.493Z,5.75
2022-08-21T03:12:22.391Z,5.80
2022-08-21T03:14:48.791Z,6.53
2022-08-21T03:17:15.201Z,6.15
2022-08-21T03:19:41.591Z,6.47
2022-08-21T03:22:08.399Z,6.88
2022-08-21T03:24:34.872Z,7.45
2022-08-21T03:27:01.726Z,7.32
2022-08-21T03:29:28.469Z,7.20
2022-08-21T03:31:55.153Z,7.93
2022-08-21T03:36:49.861Z,7.85
2022-08-21T03:39:17.147Z,7.55
2022-08-21T03:41:43.573Z,7.78
2022-08-21T03:44:09.970Z,7.97
2022-08-21T03:46:36.383Z,7.32
2022-08-21T03:49:03.560Z,6.72
2022-08-21T03:51:30.917Z,6.65
2022-08-21T03:53:57.326Z,7.03
2022-08-21T03:56:23.693Z,7.30
2022-08-21T03:58:50.118Z,6.63
2022-08-21T04:01:16.554Z,7.00
2022-08-21T04:03:43.220Z,7.35
2022-08-21T04:15:56.350Z,6.53
2022-08-21T04:18:22.782Z,7.22
2022-08-21T04:20:50.917Z,7.70
2022-08-21T04:23:23.580Z,7.93
2022-08-21T04:25:51.026Z,8.23
2022-08-21T04:28:17.410Z,7.75
2022-08-21T04:30:45.481Z,7.45
2022-08-21T04:33:11.858Z,8.43
2022-08-21T04:35:38.281Z,8.52
2022-08-21T04:38:04.701Z,8.10
2022-08-21T04:40:31.172Z,8.35
2022-08-21T04:43:00.922Z,8.25
2022-08-21T04:45:33.614Z,8.25
2022-08-21T04:48:00.852Z,9.00
2022-08-21T04:50:32.199Z,8.40
2022-08-21T04:53:06.195Z,8.90
2022-08-21T04:55:32.720Z,8.57
2022-08-21T04:58:00.170Z,8.40
2022-08-21T05:00:26.705Z,8.50
2022-08-21T05:02:57.279Z,8.32
2022-08-21T05:05:24.089Z,8.50
2022-08-21T05:07:51.085Z,7.97
2022-08-21T05:10:17.542Z,8.77
2022-08-21T05:12:44.703Z,8.63
2022-08-21T05:15:13.471Z,8.13
2022-08-21T05:17:40.656Z,7.72
2022-08-21T05:20:07.258Z,7.53
2022-08-21T05:37:14.095Z,6.10
2022-08-21T05:40:04.986Z,7.28
2022-08-21T05:42:27.269Z,6.70
2022-08-21T05:44:53.678Z,7.30
2022-08-21T05:49:46.773Z,7.00
2022-08-21T05:52:13.138Z,7.55
2022-08-21T05:54:39.526Z,7.93
2022-08-21T05:57:06.036Z,7.35
2022-08-21T05:59:32.438Z,7.50
2022-08-21T06:02:01.256Z,7.00
2022-08-21T06:04:31.411Z,7.05
2022-08-21T06:06:57.876Z,7.00
2022-08-21T06:09:24.286Z,6.82
2022-08-21T06:11:50.708Z,6.95
2022-08-21T06:14:17.402Z,6.07
2022-08-21T06:16:43.823Z,6.63
2022-08-21T06:19:10.244Z,6.47
2022-08-21T06:21:36.714Z,6.60
2022-08-21T06:24:03.241Z,5.75
2022-08-21T06:28:56.605Z,5.93
2022-08-21T06:33:49.459Z,5.28
2022-08-21T06:38:42.275Z,5.38
2022-08-21T06:41:17.406Z,6.10
2022-08-21T06:46:10.232Z,5.40
2022-08-21T06:51:03.566Z,4.97
2022-08-21T06:53:29.975Z,5.20
2022-08-21T06:58:22.746Z,4.68
2022-08-21T07:03:20.151Z,4.82
2022-08-21T07:05:46.547Z,4.82
2022-08-21T07:10:39.398Z,5.22
2022-08-21T07:15:32.693Z,4.43
2022-08-21T07:20:25.925Z,3.90
2022-08-21T07:22:52.743Z,4.30
2022-08-21T07:25:19.301Z,4.40
2022-08-21T07:27:45.697Z,4.88
2022-08-21T07:32:38.452Z,4.80
2022-08-21T07:37:31.418Z,3.80
2022-08-21T07:42:24.293Z,3.92
2022-08-21T07:44:53.164Z,4.22
2022-08-21T07:47:29.531Z,3.50
2022-08-21T07:50:09.477Z,3.55
2022-08-21T07:52:35.939Z,3.95
2022-08-21T07:55:06.011Z,3.60
2022-08-21T07:57:33.188Z,3.40
2022-08-21T07:59:59.748Z,3.22
2022-08-21T08:02:27.007Z,2.88
2022-08-21T08:04:53.477Z,3.53
2022-08-21T08:07:23.181Z,3.53
2022-08-21T08:09:49.663Z,3.58
2022-08-21T08:12:16.369Z,3.50
2022-08-21T08:14:45.948Z,3.50
2022-08-21T08:17:14.131Z,3.88
2022-08-21T08:19:40.859Z,3.40
2022-08-21T08:22:13.948Z,3.53
2022-08-21T08:24:40.766Z,3.90
2022-08-21T08:27:07.266Z,3.63
2022-08-21T08:29:33.970Z,3.13
2022-08-21T08:32:00.577Z,3.38
2022-08-21T08:34:27.029Z,4.68
2022-08-21T08:36:53.986Z,3.17
2022-08-21T08:39:26.442Z,3.15
2022-08-21T08:42:27.292Z,3.53
2022-08-21T08:44:58.690Z,3.13
2022-08-21T08:47:26.296Z,3.28
2022-08-21T08:50:06.053Z,3.75
2022-08-21T08:52:35.107Z,3.40
2022-08-21T08:55:04.920Z,3.60
2022-08-21T08:57:32.525Z,3.08
2022-08-21T09:00:02.582Z,2.92
2022-08-21T09:02:29.901Z,3.20
2022-08-21T09:04:57.977Z,2.65
2022-08-21T09:07:46.296Z,3.15
2022-08-21T09:10:12.754Z,3.00
2022-08-21T09:12:48.458Z,3.03
2022-08-21T09:15:33.153Z,2.75
2022-08-21T09:18:18.471Z,2.83
2022-08-21T09:20:45.894Z,2.40
2022-08-21T09:23:12.255Z,2.80
2022-08-21T09:25:57.110Z,3.20
2022-08-21T09:28:23.522Z,2.90
2022-08-21T09:30:51.091Z,2.70
2022-08-21T09:33:18.403Z,2.42
2022-08-21T09:35:55.202Z,2.50
2022-08-21T09:38:39.744Z,2.42
2022-08-21T09:41:09.291Z,2.77
2022-08-21T09:43:36.225Z,2.35
2022-08-21T09:46:13.531Z,2.60
2022-08-21T09:48:47.822Z,2.80
2022-08-21T09:51:19.373Z,2.20
2022-08-21T09:54:05.774Z,2.40
2022-08-21T09:56:52.517Z,2.42
2022-08-21T09:59:29.286Z,2.30
2022-08-21T10:01:58.070Z,2.45
2022-08-21T10:04:28.307Z,2.15
2022-08-21T10:06:54.775Z,2.40
2022-08-21T10:09:24.743Z,1.98
2022-08-21T10:12:01.855Z,1.98
2022-08-21T10:14:45.005Z,2.17
2022-08-21T10:17:14.402Z,2.50
2022-08-21T10:19:52.336Z,3.05
2022-08-21T10:22:54.474Z,2.72
2022-08-21T10:25:24.345Z,2.10
2022-08-21T10:27:56.194Z,2.17
2022-08-21T10:30:22.833Z,1.98
2022-08-21T10:32:59.727Z,1.95
2022-08-21T10:35:33.081Z,2.05
2022-08-21T10:38:50.508Z,2.22
2022-08-21T10:41:30.316Z,1.92
2022-08-21T10:44:12.145Z,1.83
2022-08-21T10:46:57.087Z,1.73
2022-08-21T10:49:23.951Z,1.95
2022-08-21T10:52:11.281Z,1.77
2022-08-21T10:54:52.159Z,1.60
2022-08-21T10:57:42.161Z,2.22
2022-08-21T11:00:13.603Z,1.98
2022-08-21T11:02:48.111Z,1.77
2022-08-21T11:05:18.355Z,2.38
2022-08-21T11:07:45.489Z,1.50
2022-08-21T11:10:24.545Z,1.50
2022-08-21T11:13:03.953Z,1.50
2022-08-21T11:15:52.186Z,1.83
2022-08-21T11:18:28.415Z,1.40
2022-08-21T11:21:13.794Z,1.33
2022-08-21T11:23:47.406Z,1.60
2022-08-21T11:26:33.859Z,1.52
2022-08-21T11:29:05.629Z,1.30
2022-08-21T11:31:35.160Z,1.60
2022-08-21T11:34:21.045Z,1.25
2022-08-21T11:36:47.606Z,1.67
2022-08-21T11:39:17.126Z,1.42
2022-08-21T11:41:50.630Z,1.75
2022-08-21T11:44:38.273Z,1.63
2022-08-21T11:47:26.323Z,1.70
2022-08-21T11:50:34.357Z,1.63
2022-08-21T11:53:00.418Z,1.52
2022-08-21T11:55:29.967Z,1.60
2022-08-21T11:57:56.534Z,1.60
2022-08-21T12:00:31.762Z,1.52
2022-08-21T12:03:06.768Z,1.83
2022-08-21T12:05:41.703Z,1.65
2022-08-21T12:08:12.612Z,1.70
2022-08-21T12:10:42.084Z,1.80
2022-08-21T12:13:10.327Z,1.70
2022-08-21T12:15:36.832Z,1.67
2022-08-21T12:18:06.420Z,1.70
2022-08-21T12:20:38.944Z,1.65
2022-08-21T12:23:19.194Z,2.03
2022-08-21T12:25:48.262Z,1.80
2022-08-21T12:28:22.123Z,1.92
2022-08-21T12:30:49.665Z,1.90
2022-08-21T12:33:34.991Z,1.58
2022-08-21T12:36:15.726Z,1.48
2022-08-21T12:38:46.750Z,1.83
2022-08-21T12:41:28.546Z,1.80
2022-08-21T12:44:27.455Z,1.63
2022-08-21T12:46:59.559Z,1.80
2022-08-21T12:49:44.141Z,1.77
2022-08-21T12:52:15.057Z,1.60
2022-08-21T12:54:42.853Z,1.65
2022-08-21T12:57:10.718Z,1.38
2022-08-21T12:59:40.792Z,1.23
2022-08-21T13:02:18.060Z,1.38
2022-08-21T13:04:45.385Z,1.58
2022-08-21T13:07:13.316Z,1.50
2022-08-21T13:09:44.033Z,1.55
2022-08-21T13:12:10.862Z,1.40
2022-08-21T13:14:45.297Z,1.30
2022-08-21T13:17:25.672Z,1.40
2022-08-21T13:20:04.402Z,1.35
2022-08-21T13:22:34.393Z,1.40
2022-08-21T13:25:07.123Z,1.40
2022-08-21T13:27:35.002Z,1.20
2022-08-21T13:30:07.744Z,1.60
2022-08-21T13:32:35.757Z,1.40
2022-08-21T13:35:12.333Z,1.40
2022-08-21T13:37:40.618Z,1.55
2022-08-21T13:40:08.745Z,1.30
2022-08-21T13:42:35.292Z,1.40
2022-08-21T13:45:01.683Z,1.48
2022-08-21T13:47:28.196Z,1.50
2022-08-21T13:49:59.104Z,1.60
2022-08-21T13:52:26.850Z,1.30
2022-08-21T13:54:57.842Z,1.50
2022-08-21T13:57:29.746Z,1.95
2022-08-21T14:00:17.707Z,1.60
2022-08-21T14:02:45.723Z,1.70
2022-08-21T14:05:16.961Z,1.50
2022-08-21T14:07:43.977Z,1.70
2022-08-21T14:10:18.791Z,1.75
2022-08-21T14:12:49.370Z,1.63
2022-08-21T14:15:17.510Z,1.50
2022-08-21T14:17:46.770Z,1.40
2022-08-21T14:20:26.007Z,1.65
2022-08-21T14:22:52.648Z,1.80
2022-08-21T14:25:25.488Z,1.55
2022-08-21T14:27:54.901Z,2.00
2022-08-21T14:30:37.649Z,1.63
2022-08-21T14:33:05.468Z,1.95
2022-08-21T14:35:32.149Z,1.58
2022-08-21T14:37:58.622Z,1.45
2022-08-21T14:40:25.813Z,1.63
2022-08-21T14:42:52.460Z,1.20
2022-08-21T14:45:23.865Z,1.30
2022-08-21T14:47:54.289Z,1.48
2022-08-21T14:50:20.769Z,1.50
2022-08-21T14:52:47.314Z,1.20
2022-08-21T14:55:15.182Z,1.60
2022-08-21T14:57:55.686Z,1.67
2022-08-21T15:00:26.926Z,1.50
2022-08-21T15:03:02.684Z,1.60
2022-08-21T15:05:34.044Z,1.38
2022-08-21T15:08:01.164Z,1.40
2022-08-21T15:10:27.714Z,1.40
2022-08-21T15:12:55.083Z,1.40
2022-08-21T15:15:22.740Z,1.50
2022-08-21T15:17:49.205Z,1.45
2022-08-21T15:20:16.092Z,1.60
2022-08-21T15:22:47.488Z,1.50
2022-08-21T15:25:14.290Z,1.50
2022-08-21T15:27:40.934Z,1.60
2022-08-21T15:30:08.668Z,1.42
2022-08-21T15:32:35.254Z,1.48
2022-08-21T15:35:04.954Z,1.60
2022-08-21T15:37:31.535Z,1.40
2022-08-21T15:39:58.036Z,1.50
2022-08-21T15:42:28.090Z,1.58
2022-08-21T15:44:57.167Z,1.50
2022-08-21T15:47:26.570Z,1.40
2022-08-21T15:49:53.088Z,1.35
2022-08-21T15:52:22.646Z,1.52
2022-08-21T15:54:51.432Z,2.45
2022-08-21T15:57:19.682Z,2.22
2022-08-21T16:00:13.689Z,1.52
2022-08-21T16:02:49.368Z,1.52
2022-08-21T16:05:17.481Z,1.40
2022-08-21T16:07:44.486Z,1.60
2022-08-21T16:10:11.287Z,1.50
2022-08-21T16:12:41.730Z,1.80
2022-08-21T16:15:09.581Z,1.52
2022-08-21T16:17:37.936Z,1.23
2022-08-21T16:20:06.811Z,1.40
2022-08-21T16:22:39.910Z,1.27
2022-08-21T16:25:12.026Z,1.50
2022-08-21T16:27:38.453Z,1.60
2022-08-21T16:30:09.405Z,1.50
2022-08-21T16:32:36.014Z,1.40
2022-08-21T16:35:03.715Z,2.25
2022-08-21T16:37:30.186Z,1.80
2022-08-21T16:39:56.697Z,1.40
2022-08-21T16:42:24.426Z,3.17
2022-08-21T16:48:09.608Z,1.47
2022-08-21T16:50:37.007Z,1.60
2022-08-21T16:53:03.712Z,1.73
2022-08-21T16:55:32.487Z,1.98
2022-08-21T16:58:01.001Z,1.83
2022-08-21T17:00:27.786Z,1.60
2022-08-21T17:02:55.927Z,1.73
2022-08-21T17:05:22.470Z,1.48
2022-08-21T17:07:49.062Z,1.63
2022-08-21T17:10:17.063Z,1.55
2022-08-21T17:12:44.647Z,1.30
2022-08-21T17:15:22.372Z,1.20
2022-08-21T17:17:49.458Z,1.40
2022-08-21T17:20:16.131Z,1.42
2022-08-21T17:22:42.534Z,1.73
2022-08-21T17:25:26.716Z,2.03
2022-08-21T17:27:54.160Z,2.10
2022-08-21T17:30:21.077Z,1.85
2022-08-21T17:32:48.572Z,1.73
2022-08-21T17:35:16.152Z,1.63
2022-08-21T17:37:45.770Z,1.70
2022-08-21T17:40:15.443Z,1.60
2022-08-21T17:42:42.715Z,1.40
2022-08-21T17:45:11.278Z,1.58
2022-08-21T17:47:38.380Z,1.55
2022-08-21T17:50:08.546Z,1.50
2022-08-21T17:52:35.306Z,1.75
2022-08-21T17:55:07.235Z,1.48
2022-08-21T17:57:35.387Z,1.35
2022-08-21T18:00:02.449Z,1.60
2022-08-21T18:02:38.947Z,1.75
2022-08-21T18:05:06.642Z,1.50
2022-08-21T18:07:35.466Z,1.67
2022-08-21T18:10:03.924Z,1.52
2022-08-21T18:12:34.809Z,1.52
2022-08-21T18:15:01.711Z,1.50
2022-08-21T18:17:30.276Z,1.63
2022-08-21T18:19:56.683Z,2.00
2022-08-21T18:22:27.810Z,1.60
2022-08-21T18:24:54.357Z,1.90
2022-08-21T18:27:24.647Z,1.80
2022-08-21T18:29:56.099Z,1.75
2022-08-21T18:32:30.739Z,1.70
2022-08-21T18:35:01.761Z,1.63
2022-08-21T18:37:29.159Z,1.80
2022-08-21T18:39:58.113Z,1.88
2022-08-21T18:42:31.666Z,1.60
2022-08-21T18:45:00.849Z,1.60
2022-08-21T18:47:40.059Z,1.73
2022-08-21T18:50:10.797Z,2.00
2022-08-21T18:52:37.841Z,1.58
2022-08-21T18:57:56.324Z,1.55
2022-08-21T19:00:28.919Z,1.77
2022-08-21T19:02:55.457Z,1.75
2022-08-21T19:05:23.290Z,1.55
2022-08-21T19:07:50.112Z,1.60
2022-08-21T19:10:28.643Z,1.88
2022-08-21T19:12:57.118Z,1.90
2022-08-21T19:15:24.017Z,2.03
2022-08-21T19:17:51.138Z,2.00
2022-08-21T19:20:25.429Z,2.00
2022-08-21T19:25:41.835Z,2.42
2022-08-21T19:28:10.986Z,2.03
2022-08-21T19:30:41.884Z,2.45
2022-08-21T19:33:23.410Z,1.88
2022-08-21T19:35:52.617Z,2.05
2022-08-21T19:38:19.483Z,1.90
2022-08-21T19:40:47.629Z,1.83
2022-08-21T19:43:14.109Z,2.03
2022-08-21T19:45:43.515Z,1.90
2022-08-21T19:48:12.333Z,2.28
2022-08-21T19:50:40.533Z,2.10
2022-08-21T19:53:12.002Z,2.25
2022-08-21T19:55:42.263Z,2.30
2022-08-21T19:58:27.937Z,2.10
2022-08-21T20:00:54.450Z,2.10
2022-08-21T20:03:22.755Z,2.10
2022-08-21T20:05:49.217Z,2.45
2022-08-21T20:08:20.175Z,2.38
2022-08-21T20:10:47.524Z,2.30
2022-08-21T20:13:17.606Z,2.25
2022-08-21T20:15:45.500Z,2.30
2022-08-21T20:18:11.954Z,2.60
2022-08-21T20:20:38.645Z,2.60
2022-08-21T20:23:10.648Z,2.50
2022-08-21T20:25:38.483Z,2.35
2022-08-21T20:28:06.623Z,2.00
2022-08-21T20:30:35.091Z,2.45
2022-08-21T20:33:01.963Z,2.70
2022-08-21T20:35:28.467Z,2.42
2022-08-21T20:37:58.973Z,2.30
2022-08-21T20:40:30.479Z,2.67
2022-08-21T20:42:59.893Z,2.40
2022-08-21T20:45:32.007Z,2.55
2022-08-21T20:48:11.593Z,2.63
2022-08-21T20:50:40.133Z,2.28
2022-08-21T20:53:12.005Z,3.08
2022-08-21T20:55:42.328Z,2.75
2022-08-21T20:58:12.806Z,2.40
2022-08-21T21:00:41.117Z,2.78
2022-08-21T21:03:13.736Z,2.60
2022-08-21T21:05:47.371Z,2.85
2022-08-21T21:08:25.221Z,2.70
2022-08-21T21:11:00.552Z,2.45
2022-08-21T21:13:40.407Z,2.40
2022-08-21T21:16:28.861Z,2.55
2022-08-21T21:18:58.171Z,2.67
2022-08-21T21:21:51.652Z,2.78
2022-08-21T21:24:33.521Z,2.53
2022-08-21T21:29:53.684Z,2.20
2022-08-21T21:32:21.781Z,2.30
2022-08-21T21:34:51.121Z,2.50
2022-08-21T21:37:25.895Z,2.00
2022-08-21T21:39:52.370Z,3.13
2022-08-21T21:42:18.899Z,2.20
2022-08-21T21:44:56.963Z,2.63
2022-08-21T21:47:33.521Z,2.63
2022-08-21T21:50:27.174Z,2.83
2022-08-21T21:52:59.858Z,2.55
2022-08-21T21:55:33.429Z,2.70
2022-08-21T21:57:59.835Z,3.30
2022-08-21T22:03:13.254Z,3.15
2022-08-21T22:06:01.219Z,3.28
2022-08-21T22:09:10.340Z,3.33
2022-08-21T22:11:57.329Z,3.40
2022-08-21T22:14:30.176Z,3.78
2022-08-21T22:16:57.406Z,3.75
2022-08-21T22:19:30.715Z,3.40
2022-08-21T22:22:16.352Z,3.22
2022-08-21T22:24:47.485Z,4.00
2022-08-21T22:27:26.119Z,3.65
2022-08-21T22:29:55.169Z,3.55
2022-08-21T22:32:30.400Z,3.80
2022-08-21T22:35:02.984Z,3.45
2022-08-21T22:37:39.946Z,3.70
2022-08-21T22:40:07.402Z,3.85
2022-08-21T22:42:34.305Z,3.90
2022-08-21T22:45:02.347Z,3.30
2022-08-21T22:47:37.128Z,3.05
2022-08-21T22:50:18.354Z,3.00
2022-08-21T22:52:46.484Z,3.10
2022-08-21T22:55:24.619Z,3.53
2022-08-21T22:58:06.585Z,3.30
2022-08-21T23:00:49.630Z,3.97
2022-08-21T23:03:20.619Z,4.35
2022-08-21T23:05:49.542Z,3.92
2022-08-21T23:08:25.242Z,4.00
2022-08-21T23:10:56.542Z,4.32
2022-08-21T23:13:22.981Z,3.90
2022-08-21T23:18:16.250Z,3.65
2022-08-21T23:23:29.284Z,3.85
2022-08-21T23:26:07.963Z,3.70
2022-08-21T23:28:49.663Z,2.67
2022-08-21T23:31:23.985Z,2.85
2022-08-21T23:34:22.271Z,2.90
2022-08-21T23:37:48.469Z,2.60
2022-08-21T23:40:35.281Z,3.00
2022-08-21T23:43:22.738Z,3.03
2022-08-21T23:45:59.894Z,3.13
2022-08-21T23:48:35.870Z,3.72
2022-08-21T23:51:08.580Z,3.60
2022-08-21T23:53:50.592Z,2.90
2022-08-21T23:56:20.305Z,3.03
2022-08-21T23:59:16.119Z,3.13
